createdAt,value
2019-05-02T00:00:55.302Z,96.70
2019-05-02T00:01:55.296Z,96.91
2019-05-02T00:02:55.270Z,96.49
2019-05-02T00:03:55.258Z,96.91
2019-05-02T00:04:55.911Z,96.49
2019-05-02T00:05:55.241Z,96.70
2019-05-02T00:06:55.225Z,96.95
2019-05-02T00:07:58.451Z,96.80
2019-05-02T00:08:55.200Z,96.84
2019-05-02T00:09:55.226Z,96.74
2019-05-02T00:10:55.218Z,96.64
2019-05-02T00:11:58.821Z,96.64
2019-05-02T00:12:55.158Z,96.53
2019-05-02T00:13:55.146Z,96.64
2019-05-02T00:14:56.646Z,96.74
2019-05-02T00:15:56.141Z,96.64
2019-05-02T00:16:55.117Z,96.64
2019-05-02T00:17:56.877Z,96.79
2019-05-02T00:18:56.087Z,95.86
2019-05-02T00:19:55.093Z,96.53
2019-05-02T00:20:57.192Z,96.58
2019-05-02T00:21:56.102Z,96.74
2019-05-02T00:22:55.045Z,96.64
2019-05-02T00:23:59.181Z,97.26
2019-05-02T00:24:56.058Z,96.33
2019-05-02T00:25:55.010Z,96.44
2019-05-02T00:26:56.066Z,96.74
2019-05-02T00:27:56.011Z,96.95
2019-05-02T00:28:54.986Z,96.95
2019-05-02T00:29:58.631Z,96.84
2019-05-02T00:30:55.977Z,96.69
2019-05-02T00:31:54.946Z,96.89
2019-05-02T00:32:58.337Z,96.79
2019-05-02T00:33:54.959Z,96.99
2019-05-02T00:34:54.921Z,96.79
2019-05-02T00:35:54.905Z,96.73
2019-05-02T00:36:54.892Z,96.52
2019-05-02T00:37:57.466Z,96.83
2019-05-02T00:38:55.888Z,96.62
2019-05-02T00:39:54.869Z,96.73
2019-05-02T00:40:57.471Z,96.83
2019-05-02T00:41:55.832Z,96.62
2019-05-02T00:42:58.227Z,96.62
2019-05-02T00:43:54.822Z,96.73
2019-05-02T00:44:54.824Z,96.52
2019-05-02T00:45:55.013Z,96.88
2019-05-02T00:46:54.798Z,96.52
2019-05-02T00:47:54.766Z,97.04
2019-05-02T00:48:59.658Z,96.88
2019-05-02T00:49:55.762Z,96.83
2019-05-02T00:50:54.730Z,96.52
2019-05-02T00:51:56.674Z,96.67
2019-05-02T00:52:55.721Z,96.77
2019-05-02T00:53:54.707Z,96.98
2019-05-02T00:54:58.391Z,96.67
2019-05-02T00:55:54.694Z,96.77
2019-05-02T00:56:54.687Z,96.88
2019-05-02T00:57:55.671Z,97.08
2019-05-02T00:58:54.653Z,96.88
2019-05-02T00:59:54.630Z,96.67
2019-05-02T01:00:54.860Z,96.56
2019-05-02T01:01:54.635Z,96.77
2019-05-02T01:02:54.606Z,96.61
2019-05-02T01:03:54.596Z,96.72
2019-05-02T01:04:54.579Z,96.82
2019-05-02T01:05:54.579Z,96.82
2019-05-02T01:06:54.555Z,96.72
2019-05-02T01:07:55.900Z,96.82
2019-05-02T01:08:55.532Z,96.92
2019-05-02T01:09:54.523Z,97.02
2019-05-02T01:10:56.806Z,97.13
2019-05-02T01:11:54.502Z,96.97
2019-05-02T01:12:54.494Z,96.86
2019-05-02T01:13:55.893Z,96.76
2019-05-02T01:14:54.463Z,96.92
2019-05-02T01:15:54.458Z,96.76
2019-05-02T01:16:56.120Z,97.28
2019-05-02T01:17:54.448Z,97.07
2019-05-02T01:18:54.425Z,97.17
2019-05-02T01:19:54.432Z,97.17
2019-05-02T01:20:58.118Z,97.85
2019-05-02T01:21:55.409Z,97.85
2019-05-02T01:22:54.388Z,97.85
2019-05-02T01:23:59.009Z,97.91
2019-05-02T01:24:55.381Z,97.91
2019-05-02T01:25:54.588Z,98.22
2019-05-02T01:26:54.359Z,97.71
2019-05-02T01:27:54.327Z,98.28
2019-05-02T01:28:55.674Z,98.28
2019-05-02T01:29:54.331Z,98.49
2019-05-02T01:30:54.310Z,98.28
2019-05-02T01:31:54.654Z,98.49
2019-05-02T01:32:54.264Z,98.69
2019-05-02T01:33:54.252Z,98.63
2019-05-02T01:34:56.254Z,98.53
2019-05-02T01:35:54.267Z,98.32
2019-05-02T01:36:54.247Z,97.96
2019-05-02T01:37:54.890Z,98.06
2019-05-02T01:38:54.201Z,98.27
2019-05-02T01:39:54.189Z,97.96
2019-05-02T01:40:54.742Z,98.22
2019-05-02T01:41:54.167Z,98.27
2019-05-02T01:42:54.173Z,98.57
2019-05-02T01:43:54.967Z,98.27
2019-05-02T01:44:55.145Z,98.62
2019-05-02T01:45:54.117Z,98.06
2019-05-02T01:46:58.667Z,98.00
2019-05-02T01:47:55.117Z,98.37
2019-05-02T01:48:54.091Z,98.62
2019-05-02T01:49:57.346Z,98.37
2019-05-02T01:50:55.077Z,98.41
2019-05-02T01:51:54.052Z,98.21
2019-05-02T01:52:58.684Z,98.41
2019-05-02T01:53:55.055Z,98.31
2019-05-02T01:54:54.032Z,98.00
2019-05-02T01:55:57.630Z,98.31
2019-05-02T01:56:55.002Z,98.41
2019-05-02T01:57:53.987Z,98.00
2019-05-02T01:58:57.696Z,98.31
2019-05-02T01:59:53.982Z,98.31
2019-05-02T02:00:53.962Z,98.10
2019-05-02T02:01:57.937Z,98.52
2019-05-02T02:02:54.930Z,98.52
2019-05-02T02:03:53.955Z,98.83
2019-05-02T02:04:56.902Z,98.31
2019-05-02T02:05:53.926Z,98.78
2019-05-02T02:06:53.882Z,98.52
2019-05-02T02:07:55.482Z,98.16
2019-05-02T02:08:53.874Z,98.57
2019-05-02T02:09:53.859Z,98.99
2019-05-02T02:10:56.215Z,98.31
2019-05-02T02:11:53.851Z,98.57
2019-05-02T02:13:03.221Z,99.09
2019-05-02T02:13:54.809Z,99.19
2019-05-02T02:14:55.462Z,98.31
2019-05-02T02:15:53.788Z,98.88
2019-05-02T02:16:53.778Z,98.21
2019-05-02T02:17:53.807Z,98.41
2019-05-02T02:18:53.751Z,98.62
2019-05-02T02:19:53.743Z,98.83
2019-05-02T02:20:53.730Z,99.40
2019-05-02T02:21:57.351Z,99.30
2019-05-02T02:22:54.741Z,99.61
2019-05-02T02:23:53.700Z,99.71
2019-05-02T02:24:56.029Z,99.71
2019-05-02T02:25:54.675Z,99.61
2019-05-02T02:26:53.661Z,99.86
2019-05-02T02:27:55.031Z,98.99
2019-05-02T02:28:54.665Z,99.34
2019-05-02T02:29:53.634Z,99.65
2019-05-02T02:30:57.806Z,99.14
2019-05-02T02:31:54.611Z,99.24
2019-05-02T02:33:00.142Z,99.44
2019-05-02T02:33:54.608Z,99.96
2019-05-02T02:34:53.609Z,99.86
2019-05-02T02:35:53.563Z,99.65
2019-05-02T02:36:53.550Z,99.65
2019-05-02T02:37:55.765Z,99.82
2019-05-02T02:38:53.540Z,99.76
2019-05-02T02:39:54.149Z,99.92
2019-05-02T02:40:53.527Z,99.55
2019-05-02T02:41:54.171Z,99.71
2019-05-02T02:42:53.485Z,99.34
2019-05-02T02:43:54.738Z,99.40
2019-05-02T02:44:54.463Z,99.71
2019-05-02T02:45:57.786Z,99.30
2019-05-02T02:46:54.468Z,99.30
2019-05-02T02:47:59.837Z,99.86
2019-05-02T02:48:54.419Z,99.51
2019-05-02T02:49:56.066Z,99.76
2019-05-02T02:50:54.394Z,99.99
2019-05-02T02:51:58.103Z,99.96
2019-05-02T02:52:54.402Z,99.86
2019-05-02T02:54:02.816Z,99.65
2019-05-02T02:54:54.353Z,99.55
2019-05-02T02:56:01.176Z,99.55
2019-05-02T02:56:54.340Z,99.99
2019-05-02T02:57:58.610Z,99.99
2019-05-02T02:58:54.355Z,99.65
2019-05-02T02:59:53.306Z,99.99
2019-05-02T03:00:53.325Z,99.99
2019-05-02T03:01:53.283Z,99.76
2019-05-02T03:02:53.270Z,99.76
2019-05-02T03:03:53.264Z,99.99
2019-05-02T03:04:53.269Z,99.65
2019-05-02T03:05:58.643Z,99.96
2019-05-02T03:06:54.229Z,99.96
2019-05-02T03:07:53.215Z,99.96
2019-05-02T03:08:53.219Z,99.99
2019-05-02T03:09:53.227Z,99.86
2019-05-02T03:10:53.206Z,99.55
2019-05-02T03:11:56.314Z,99.65
2019-05-02T03:12:54.150Z,99.76
2019-05-02T03:13:59.686Z,99.76
2019-05-02T03:14:54.161Z,99.65
2019-05-02T03:15:53.138Z,99.76
2019-05-02T03:16:53.130Z,99.65
2019-05-02T03:17:53.095Z,99.76
2019-05-02T03:18:53.082Z,99.99
2019-05-02T03:19:54.390Z,99.92
2019-05-02T03:20:54.077Z,99.99
2019-05-02T03:21:54.414Z,99.99
2019-05-02T03:22:54.061Z,99.99
2019-05-02T03:24:02.254Z,99.99
2019-05-02T03:24:54.023Z,99.82
2019-05-02T03:25:53.035Z,99.99
2019-05-02T03:26:55.396Z,99.92
2019-05-02T03:27:53.003Z,99.99
2019-05-02T03:28:58.715Z,99.99
2019-05-02T03:29:53.962Z,99.99
2019-05-02T03:30:52.964Z,99.99
2019-05-02T03:32:11.461Z,99.99
2019-05-02T03:33:06.686Z,99.99
2019-05-02T03:33:59.794Z,99.99
2019-05-02T03:34:54.442Z,99.99
2019-05-02T03:35:52.933Z,99.99
2019-05-02T03:36:52.890Z,99.99
2019-05-02T03:37:53.131Z,99.99
2019-05-02T03:38:52.865Z,99.99
2019-05-02T03:39:57.388Z,99.99
2019-05-02T03:40:53.837Z,99.99
2019-05-02T03:41:55.446Z,99.99
2019-05-02T03:42:53.820Z,99.99
2019-05-02T03:44:09.760Z,99.99
2019-05-02T03:44:56.071Z,99.99
2019-05-02T03:45:53.779Z,99.99
2019-05-02T03:46:54.176Z,99.99
2019-05-02T03:47:53.779Z,99.98
2019-05-02T03:49:05.767Z,99.99
2019-05-02T03:49:53.766Z,99.99
2019-05-02T03:50:52.790Z,99.99
2019-05-02T03:51:55.831Z,99.99
2019-05-02T03:52:53.709Z,99.98
2019-05-02T03:54:06.484Z,99.99
2019-05-02T03:54:53.686Z,99.99
2019-05-02T03:55:52.667Z,99.99
2019-05-02T03:56:53.478Z,99.99
2019-05-02T03:57:52.649Z,99.99
2019-05-02T03:58:55.978Z,99.99
2019-05-02T03:59:53.632Z,99.99
2019-05-02T04:01:00.922Z,99.99
2019-05-02T04:01:53.631Z,99.99
2019-05-02T04:02:59.087Z,99.99
2019-05-02T04:03:53.590Z,99.99
2019-05-02T04:05:00.408Z,99.99
2019-05-02T04:05:53.558Z,99.99
2019-05-02T04:06:54.847Z,99.99
2019-05-02T04:07:53.560Z,99.99
2019-05-02T04:08:58.756Z,99.99
2019-05-02T04:09:53.517Z,99.99
2019-05-02T04:10:59.218Z,99.99
2019-05-02T04:11:53.508Z,99.99
2019-05-02T04:12:58.048Z,99.99
2019-05-02T04:13:53.507Z,99.99
2019-05-02T04:14:55.530Z,99.99
2019-05-02T04:15:52.460Z,99.99
2019-05-02T04:16:55.312Z,99.99
2019-05-02T04:17:52.445Z,99.99
2019-05-02T04:18:55.721Z,99.99
2019-05-02T04:19:53.423Z,99.99
2019-05-02T04:20:52.406Z,99.99
2019-05-02T04:21:54.847Z,99.99
2019-05-02T04:22:52.369Z,99.99
2019-05-02T04:23:52.380Z,99.99
2019-05-02T04:24:56.842Z,99.99
2019-05-02T04:25:52.372Z,99.99
2019-05-02T04:26:55.902Z,99.99
2019-05-02T04:27:52.314Z,99.99
2019-05-02T04:28:53.735Z,99.99
2019-05-02T04:29:52.334Z,99.99
2019-05-02T04:30:53.987Z,99.99
2019-05-02T04:31:52.301Z,99.99
2019-05-02T04:32:55.767Z,99.99
2019-05-02T04:33:52.247Z,99.99
2019-05-02T04:34:55.343Z,99.99
2019-05-02T04:35:53.239Z,99.99
2019-05-02T04:36:59.683Z,99.99
2019-05-02T04:37:53.221Z,99.99
2019-05-02T04:38:52.895Z,99.99
2019-05-02T04:39:53.857Z,99.99
2019-05-02T04:40:53.190Z,99.99
2019-05-02T04:41:52.171Z,99.99
2019-05-02T04:43:02.096Z,99.99
2019-05-02T04:43:57.500Z,99.88
2019-05-02T04:45:14.189Z,99.99
2019-05-02T04:45:59.134Z,99.99
2019-05-02T04:47:02.748Z,99.99
2019-05-02T04:47:58.438Z,99.99
2019-05-02T04:48:53.279Z,99.99
2019-05-02T04:49:52.295Z,99.88
2019-05-02T04:51:01.908Z,99.99
2019-05-02T04:52:04.773Z,99.99
2019-05-02T04:52:54.096Z,99.99
2019-05-02T04:53:52.112Z,99.99
2019-05-02T04:54:52.034Z,99.88
2019-05-02T04:56:01.689Z,99.99
2019-05-02T04:56:55.320Z,99.78
2019-05-02T04:57:51.986Z,99.99
2019-05-02T04:58:51.979Z,99.63
2019-05-02T05:00:02.416Z,99.99
2019-05-02T05:00:58.119Z,99.99
2019-05-02T05:01:57.568Z,99.84
2019-05-02T05:02:53.374Z,99.99
2019-05-02T05:03:58.610Z,99.94
2019-05-02T05:04:52.931Z,99.84
2019-05-02T05:05:51.903Z,99.84
2019-05-02T05:06:56.229Z,99.99
2019-05-02T05:07:52.880Z,99.84
2019-05-02T05:08:51.867Z,99.99
2019-05-02T05:09:58.168Z,99.99
2019-05-02T05:10:52.850Z,99.99
2019-05-02T05:11:53.804Z,99.79
2019-05-02T05:12:52.851Z,99.58
2019-05-02T05:13:52.539Z,99.79
2019-05-02T05:14:51.800Z,99.99
2019-05-02T05:15:52.133Z,99.79
2019-05-02T05:16:55.592Z,99.90
2019-05-02T05:17:52.787Z,99.79
2019-05-02T05:18:53.301Z,99.79
2019-05-02T05:19:51.747Z,99.99
2019-05-02T05:20:53.233Z,99.79
2019-05-02T05:21:58.809Z,99.48
2019-05-02T05:22:52.750Z,99.48
2019-05-02T05:23:56.660Z,99.79
2019-05-02T05:24:52.711Z,99.79
2019-05-02T05:25:55.674Z,99.79
2019-05-02T05:26:52.699Z,99.85
2019-05-02T05:27:52.597Z,99.79
2019-05-02T05:28:52.670Z,99.48
2019-05-02T05:29:53.783Z,99.02
2019-05-02T05:30:52.668Z,99.13
2019-05-02T05:31:55.215Z,99.43
2019-05-02T05:32:52.624Z,99.23
2019-05-02T05:33:51.601Z,99.33
2019-05-02T05:34:51.597Z,99.43
2019-05-02T05:35:52.726Z,99.54
2019-05-02T05:36:51.587Z,99.23
2019-05-02T05:37:53.013Z,98.82
2019-05-02T05:38:51.550Z,98.61
2019-05-02T05:39:52.692Z,98.71
2019-05-02T05:40:51.534Z,98.67
2019-05-02T05:41:52.462Z,98.50
2019-05-02T05:42:51.528Z,98.15
2019-05-02T05:43:53.622Z,98.36
2019-05-02T05:44:51.490Z,97.95
2019-05-02T05:45:56.624Z,98.46
2019-05-02T05:46:52.465Z,98.57
2019-05-02T05:47:52.334Z,98.36
2019-05-02T05:48:52.475Z,98.11
2019-05-02T05:49:52.306Z,97.90
2019-05-02T05:50:52.429Z,97.60
2019-05-02T05:51:54.293Z,97.60
2019-05-02T05:52:52.403Z,97.69
2019-05-02T05:53:52.254Z,97.90
2019-05-02T05:54:51.411Z,97.39
2019-05-02T05:55:53.679Z,97.60
2019-05-02T05:56:52.367Z,97.80
2019-05-02T05:58:00.058Z,97.28
2019-05-02T05:58:52.711Z,97.08
2019-05-02T05:59:51.340Z,97.69
2019-05-02T06:00:55.459Z,97.49
2019-05-02T06:01:52.317Z,97.55
2019-05-02T06:02:56.359Z,97.65
2019-05-02T06:03:52.289Z,97.34
2019-05-02T06:04:55.432Z,96.52
2019-05-02T06:05:52.290Z,96.83
2019-05-02T06:06:53.953Z,96.83
2019-05-02T06:07:52.239Z,96.52
2019-05-02T06:08:54.116Z,96.58
2019-05-02T06:09:51.232Z,96.47
2019-05-02T06:10:51.209Z,95.96
2019-05-02T06:11:55.417Z,96.22
2019-05-02T06:12:51.188Z,96.33
2019-05-02T06:13:51.175Z,95.71
2019-05-02T06:14:51.179Z,95.92
2019-05-02T06:16:01.589Z,94.99
2019-05-02T06:16:53.264Z,94.99
2019-05-02T06:17:51.128Z,94.78
2019-05-02T06:18:51.130Z,94.78
2019-05-02T06:19:53.551Z,94.64
2019-05-02T06:20:51.099Z,94.89
2019-05-02T06:21:51.085Z,94.58
2019-05-02T06:22:54.935Z,94.58
2019-05-02T06:23:52.056Z,94.12
2019-05-02T06:24:52.115Z,94.64
2019-05-02T06:25:51.050Z,94.54
2019-05-02T06:26:51.846Z,94.23
2019-05-02T06:27:51.015Z,94.12
2019-05-02T06:28:51.021Z,94.43
2019-05-02T06:29:55.629Z,93.65
2019-05-02T06:30:51.977Z,93.92
2019-05-02T06:31:50.972Z,93.82
2019-05-02T06:32:54.933Z,93.51
2019-05-02T06:33:51.988Z,94.43
2019-05-02T06:34:50.931Z,94.33
2019-05-02T06:35:51.916Z,94.54
2019-05-02T06:36:51.909Z,93.82
2019-05-02T06:37:52.012Z,93.40
2019-05-02T06:38:52.283Z,92.89
2019-05-02T06:39:51.896Z,93.51
2019-05-02T06:40:50.870Z,92.89
2019-05-02T06:41:51.978Z,93.30
2019-05-02T06:42:51.866Z,93.51
2019-05-02T06:43:50.834Z,93.46
2019-05-02T06:44:54.814Z,93.20
2019-05-02T06:45:51.827Z,92.74
2019-05-02T06:46:50.817Z,93.10
2019-05-02T06:47:50.787Z,92.69
2019-05-02T06:48:52.304Z,93.30
2019-05-02T06:49:50.763Z,92.74
2019-05-02T06:50:50.756Z,93.26
2019-05-02T06:51:50.962Z,93.05
2019-05-02T06:52:50.731Z,93.26
2019-05-02T06:53:50.717Z,93.16
2019-05-02T06:54:54.138Z,92.64
2019-05-02T06:55:51.695Z,92.33
2019-05-02T06:56:50.733Z,91.82
2019-05-02T06:57:51.824Z,91.72
2019-05-02T06:58:50.661Z,92.13
2019-05-02T06:59:54.703Z,91.99
2019-05-02T07:00:58.182Z,91.37
2019-05-02T07:01:52.279Z,90.55
2019-05-02T07:02:51.641Z,90.55
2019-05-02T07:03:50.602Z,90.55
2019-05-02T07:04:54.708Z,90.65
2019-05-02T07:05:50.601Z,90.65
2019-05-02T07:06:58.722Z,90.75
2019-05-02T07:07:51.689Z,90.91
2019-05-02T07:08:50.684Z,90.34
2019-05-02T07:09:50.598Z,90.44
2019-05-02T07:10:50.532Z,90.65
2019-05-02T07:11:57.106Z,89.72
2019-05-02T07:13:02.244Z,90.09
2019-05-02T07:13:51.517Z,89.07
2019-05-02T07:14:50.501Z,89.37
2019-05-02T07:15:50.488Z,89.17
2019-05-02T07:16:54.551Z,90.09
2019-05-02T07:17:51.467Z,89.33
2019-05-02T07:18:50.442Z,88.66
2019-05-02T07:19:50.453Z,89.07
2019-05-02T07:20:50.417Z,88.31
2019-05-02T07:21:53.069Z,88.62
2019-05-02T07:22:51.398Z,88.62
2019-05-02T07:23:53.469Z,88.51
2019-05-02T07:24:50.372Z,88.41
2019-05-02T07:25:50.386Z,87.63
2019-05-02T07:26:52.095Z,88.04
2019-05-02T07:27:51.339Z,87.94
2019-05-02T07:28:50.321Z,88.24
2019-05-02T07:29:52.232Z,88.45
2019-05-02T07:30:54.355Z,88.35
2019-05-02T07:31:53.341Z,88.66
2019-05-02T07:32:50.281Z,88.66
2019-05-02T07:33:50.265Z,89.07
2019-05-02T07:34:50.255Z,88.31
2019-05-02T07:35:50.251Z,87.49
2019-05-02T07:36:50.257Z,88.00
2019-05-02T07:37:50.218Z,87.38
2019-05-02T07:38:50.212Z,86.25
2019-05-02T07:39:50.201Z,86.87
2019-05-02T07:40:53.049Z,87.08
2019-05-02T07:41:50.175Z,86.66
2019-05-02T07:42:50.183Z,86.83
2019-05-02T07:43:52.044Z,86.52
2019-05-02T07:44:51.139Z,86.01
2019-05-02T07:45:50.134Z,85.80
2019-05-02T07:46:51.865Z,86.22
2019-05-02T07:47:50.107Z,86.32
2019-05-02T07:48:54.561Z,85.91
2019-05-02T07:49:50.086Z,85.87
2019-05-02T07:50:50.431Z,84.74
2019-05-02T07:51:52.462Z,83.51
2019-05-02T07:52:51.054Z,83.78
2019-05-02T07:53:50.044Z,82.69
2019-05-02T07:54:50.050Z,82.08
2019-05-02T07:55:50.025Z,82.65
2019-05-02T07:56:53.384Z,82.14
2019-05-02T07:57:49.995Z,82.86
2019-05-02T07:58:49.978Z,83.47
2019-05-02T07:59:50.079Z,83.17
2019-05-02T08:00:49.973Z,82.96
2019-05-02T08:01:51.010Z,82.96
2019-05-02T08:02:49.932Z,82.45
2019-05-02T08:03:49.930Z,82.65
2019-05-02T08:04:49.910Z,81.52
2019-05-02T08:05:54.528Z,81.01
2019-05-02T08:06:50.901Z,79.99
2019-05-02T08:07:53.420Z,79.79
2019-05-02T08:08:50.861Z,79.38
2019-05-02T08:09:49.872Z,77.91
2019-05-02T08:10:53.817Z,78.31
2019-05-02T08:11:50.823Z,77.50
2019-05-02T08:12:49.848Z,77.91
2019-05-02T08:13:55.769Z,77.60
2019-05-02T08:14:50.792Z,77.19
2019-05-02T08:15:51.001Z,77.39
2019-05-02T08:16:49.770Z,77.50
2019-05-02T08:17:53.702Z,77.70
2019-05-02T08:18:50.764Z,77.53
2019-05-02T08:19:49.729Z,77.84
2019-05-02T08:20:51.070Z,77.73
2019-05-02T08:21:50.705Z,77.70
2019-05-02T08:22:50.469Z,77.29
2019-05-02T08:23:49.681Z,77.39
2019-05-02T08:24:49.695Z,77.36
2019-05-02T08:25:49.662Z,76.27
2019-05-02T08:26:53.330Z,77.39
2019-05-02T08:27:50.649Z,76.17
2019-05-02T08:28:51.950Z,77.19
2019-05-02T08:29:49.610Z,77.09
2019-05-02T08:30:49.657Z,76.43
2019-05-02T08:31:49.584Z,75.82
2019-05-02T08:32:49.594Z,75.45
2019-05-02T08:33:49.568Z,75.55
2019-05-02T08:34:51.989Z,75.42
2019-05-02T08:35:49.538Z,75.42
2019-05-02T08:36:49.550Z,75.62
2019-05-02T08:37:49.521Z,76.71
2019-05-02T08:38:53.667Z,77.12
2019-05-02T08:39:50.509Z,76.20
2019-05-02T08:40:49.729Z,75.59
2019-05-02T08:41:51.213Z,75.68
2019-05-02T08:42:50.479Z,75.48
2019-05-02T08:43:49.449Z,74.56
2019-05-02T08:44:51.215Z,75.59
2019-05-02T08:45:49.455Z,75.99
2019-05-02T08:46:51.426Z,75.14
2019-05-02T08:47:49.520Z,75.07
2019-05-02T08:48:50.788Z,75.38
2019-05-02T08:49:54.383Z,74.46
2019-05-02T08:50:50.354Z,75.68
2019-05-02T08:51:49.404Z,74.97
2019-05-02T08:52:49.358Z,74.26
2019-05-02T08:53:52.017Z,74.97
2019-05-02T08:54:50.337Z,75.55
2019-05-02T08:55:49.304Z,74.90
2019-05-02T08:56:53.258Z,73.98
2019-05-02T08:57:50.276Z,74.02
2019-05-02T08:58:49.937Z,73.30
2019-05-02T08:59:49.250Z,73.61
2019-05-02T09:00:49.312Z,74.02
2019-05-02T09:01:49.662Z,75.04
2019-05-02T09:02:49.217Z,73.27
2019-05-02T09:03:55.227Z,73.27
2019-05-02T09:04:58.197Z,73.88
2019-05-02T09:05:50.236Z,73.47
2019-05-02T09:06:53.320Z,73.44
2019-05-02T09:07:50.165Z,74.46
2019-05-02T09:08:51.318Z,73.54
2019-05-02T09:09:49.138Z,73.64
2019-05-02T09:10:49.123Z,73.23
2019-05-02T09:12:03.304Z,72.07
2019-05-02T09:12:51.943Z,70.95
2019-05-02T09:13:49.091Z,73.30
2019-05-02T09:14:49.078Z,71.80
2019-05-02T09:15:51.302Z,71.77
2019-05-02T09:16:49.068Z,73.81
2019-05-02T09:17:52.687Z,72.69
2019-05-02T09:18:53.817Z,72.65
2019-05-02T09:20:00.253Z,72.45
2019-05-02T09:20:52.642Z,71.70
2019-05-02T09:21:52.165Z,69.29
2019-05-02T09:22:52.113Z,69.18
2019-05-02T09:23:51.798Z,71.02
2019-05-02T09:24:48.965Z,69.08
2019-05-02T09:25:48.958Z,71.12
2019-05-02T09:26:48.944Z,71.63
2019-05-02T09:27:48.941Z,70.17
2019-05-02T09:28:48.924Z,70.78
2019-05-02T09:29:48.933Z,70.00
2019-05-02T09:30:48.901Z,69.90
2019-05-02T09:31:48.882Z,70.51
2019-05-02T09:32:48.872Z,70.61
2019-05-02T09:33:48.863Z,70.92
2019-05-02T09:34:48.846Z,70.89
2019-05-02T09:35:48.855Z,71.19
2019-05-02T09:36:48.832Z,70.57
2019-05-02T09:37:48.813Z,70.34
2019-05-02T09:38:53.146Z,68.37
2019-05-02T09:39:49.793Z,68.37
2019-05-02T09:40:54.596Z,67.73
2019-05-02T09:41:49.788Z,66.91
2019-05-02T09:42:53.402Z,66.68
2019-05-02T09:43:49.744Z,65.73
2019-05-02T09:44:55.698Z,65.43
2019-05-02T09:45:51.836Z,64.25
2019-05-02T09:46:55.226Z,63.43
2019-05-02T09:47:58.189Z,63.43
2019-05-02T09:48:51.830Z,63.78
2019-05-02T09:49:50.373Z,60.75
2019-05-02T09:50:48.668Z,61.01
2019-05-02T09:51:50.479Z,63.24
2019-05-02T09:52:49.647Z,63.68
2019-05-02T09:53:48.670Z,62.76
2019-05-02T09:54:48.624Z,63.48
2019-05-02T09:55:55.027Z,63.37
2019-05-02T09:56:49.603Z,62.41
2019-05-02T09:57:48.591Z,63.33
2019-05-02T09:58:49.382Z,64.28
2019-05-02T09:59:50.632Z,63.59
2019-05-02T10:00:49.563Z,63.35
2019-05-02T10:01:48.547Z,63.97
2019-05-02T10:02:48.540Z,64.55
2019-05-02T10:03:48.524Z,62.75
2019-05-02T10:04:48.514Z,63.83
2019-05-02T10:05:48.519Z,64.67
2019-05-02T10:06:48.500Z,66.07
2019-05-02T10:07:48.758Z,64.72
2019-05-02T10:08:48.480Z,63.16
2019-05-02T10:09:48.457Z,65.06
2019-05-02T10:10:48.449Z,64.65
2019-05-02T10:11:48.462Z,60.83
2019-05-02T10:12:48.428Z,63.37
2019-05-02T10:13:48.421Z,60.20
2019-05-02T10:14:48.402Z,59.89
2019-05-02T10:15:48.399Z,60.71
2019-05-02T10:16:48.392Z,62.84
2019-05-02T10:17:48.397Z,61.72
2019-05-02T10:18:48.386Z,60.71
2019-05-02T10:19:49.200Z,60.40
2019-05-02T10:20:48.356Z,59.16
2019-05-02T10:21:52.554Z,58.90
2019-05-02T10:22:49.333Z,58.90
2019-05-02T10:23:51.725Z,57.07
2019-05-02T10:24:49.290Z,58.87
2019-05-02T10:25:48.278Z,58.44
2019-05-02T10:26:48.275Z,57.22
2019-05-02T10:27:48.260Z,57.04
2019-05-02T10:28:50.624Z,56.87
2019-05-02T10:29:48.242Z,58.56
2019-05-02T10:30:52.741Z,59.25
2019-05-02T10:31:49.211Z,57.78
2019-05-02T10:32:55.557Z,56.05
2019-05-02T10:33:49.211Z,53.52
2019-05-02T10:34:55.283Z,53.52
2019-05-02T10:35:49.168Z,56.10
2019-05-02T10:36:53.866Z,56.05
2019-05-02T10:37:49.157Z,56.00
2019-05-02T10:38:48.972Z,53.25
2019-05-02T10:39:49.167Z,54.23
2019-05-02T10:40:52.854Z,53.38
2019-05-02T10:41:49.105Z,52.21
2019-05-02T10:42:48.109Z,53.90
2019-05-02T10:43:53.961Z,54.97
2019-05-02T10:44:49.068Z,57.35
2019-05-02T10:45:52.734Z,58.11
2019-05-02T10:46:49.048Z,57.53
2019-05-02T10:47:48.038Z,58.54
2019-05-02T10:48:48.030Z,60.88
2019-05-02T10:49:48.015Z,59.05
2019-05-02T10:50:48.003Z,55.90
2019-05-02T10:51:49.489Z,56.10
2019-05-02T10:52:47.982Z,56.64
2019-05-02T10:53:53.954Z,57.24
2019-05-02T10:54:48.970Z,58.31
2019-05-02T10:55:47.954Z,57.29
2019-05-02T10:56:47.945Z,55.68
2019-05-02T10:57:47.943Z,55.47
2019-05-02T10:58:47.919Z,55.35
2019-05-02T10:59:47.909Z,52.36
2019-05-02T11:00:47.905Z,53.67
2019-05-02T11:01:47.887Z,54.94
2019-05-02T11:02:47.877Z,51.78
2019-05-02T11:03:47.884Z,52.67
2019-05-02T11:04:47.859Z,51.56
2019-05-02T11:05:47.843Z,52.67
2019-05-02T11:06:47.831Z,52.14
2019-05-02T11:07:47.819Z,52.16
2019-05-02T11:08:47.809Z,52.67
2019-05-02T11:09:47.828Z,50.47
2019-05-02T11:10:47.793Z,51.98
2019-05-02T11:11:47.789Z,53.40
2019-05-02T11:12:47.804Z,53.88
2019-05-02T11:13:47.759Z,51.86
2019-05-02T11:14:47.744Z,52.34
2019-05-02T11:15:47.753Z,51.25
2019-05-02T11:16:47.728Z,51.96
2019-05-02T11:17:47.716Z,51.53
2019-05-02T11:18:47.707Z,52.97
2019-05-02T11:19:47.694Z,53.78
2019-05-02T11:20:47.682Z,51.38
2019-05-02T11:21:56.455Z,51.93
2019-05-02T11:22:48.663Z,51.20
2019-05-02T11:23:47.736Z,53.40
2019-05-02T11:24:47.681Z,55.09
2019-05-02T11:25:47.631Z,52.89
2019-05-02T11:26:47.624Z,54.58
2019-05-02T11:27:47.626Z,54.51
2019-05-02T11:28:47.600Z,51.38
2019-05-02T11:29:47.588Z,53.17
2019-05-02T11:30:47.582Z,53.50
2019-05-02T11:31:47.571Z,50.16
2019-05-02T11:32:47.558Z,51.91
2019-05-02T11:33:47.566Z,51.48
2019-05-02T11:34:47.532Z,53.60
2019-05-02T11:35:49.210Z,52.47
2019-05-02T11:36:47.515Z,51.38
2019-05-02T11:37:47.506Z,51.28
2019-05-02T11:38:53.933Z,51.32
2019-05-02T11:39:52.282Z,52.06
2019-05-02T11:40:48.466Z,54.31
2019-05-02T11:41:47.458Z,53.90
2019-05-02T11:42:47.450Z,54.53
2019-05-02T11:43:47.441Z,54.49
2019-05-02T11:44:47.430Z,54.74
2019-05-02T11:45:47.459Z,55.91
2019-05-02T11:46:47.410Z,56.85
2019-05-02T11:47:47.395Z,57.35
2019-05-02T11:48:56.173Z,57.56
2019-05-02T11:49:52.072Z,57.15
2019-05-02T11:50:48.416Z,59.36
2019-05-02T11:51:52.717Z,55.98
2019-05-02T11:52:48.356Z,58.82
2019-05-02T11:53:47.327Z,56.39
2019-05-02T11:54:48.607Z,56.82
2019-05-02T11:55:47.308Z,57.20
2019-05-02T11:56:49.466Z,59.00
2019-05-02T11:57:47.306Z,59.10
2019-05-02T11:58:48.410Z,57.75
2019-05-02T11:59:47.262Z,57.04
2019-05-02T12:00:49.591Z,55.70
2019-05-02T12:01:57.578Z,54.89
2019-05-02T12:02:49.099Z,55.30
2019-05-02T12:03:47.217Z,55.47
2019-05-02T12:04:51.619Z,54.97
2019-05-02T12:05:48.193Z,53.37
2019-05-02T12:06:49.921Z,54.61
2019-05-02T12:07:48.170Z,54.61
2019-05-02T12:08:49.337Z,54.44
2019-05-02T12:09:52.064Z,56.34
2019-05-02T12:10:48.142Z,56.64
2019-05-02T12:11:51.475Z,56.10
2019-05-02T12:12:48.215Z,54.99
2019-05-02T12:13:52.804Z,55.32
2019-05-02T12:14:48.265Z,54.57
2019-05-02T12:15:47.171Z,54.77
2019-05-02T12:16:47.077Z,57.40
2019-05-02T12:17:47.090Z,57.28
2019-05-02T12:18:47.048Z,56.05
2019-05-02T12:19:47.038Z,57.68
2019-05-02T12:20:47.060Z,57.42
2019-05-02T12:21:47.044Z,56.79
2019-05-02T12:22:47.057Z,54.76
2019-05-02T12:23:46.988Z,54.16
2019-05-02T12:24:46.976Z,54.86
2019-05-02T12:25:46.967Z,54.26
2019-05-02T12:26:46.974Z,53.52
2019-05-02T12:27:46.957Z,54.94
2019-05-02T12:28:46.946Z,53.72
2019-05-02T12:29:50.182Z,54.03
2019-05-02T12:30:47.909Z,53.19
2019-05-02T12:31:47.197Z,53.93
2019-05-02T12:32:46.909Z,53.30
2019-05-02T12:33:46.873Z,52.21
2019-05-02T12:34:46.865Z,51.48
2019-05-02T12:35:46.855Z,51.60
2019-05-02T12:36:46.839Z,53.02
2019-05-02T12:37:47.209Z,52.33
2019-05-02T12:38:46.838Z,53.65
2019-05-02T12:39:46.811Z,54.26
2019-05-02T12:40:46.795Z,53.75
2019-05-02T12:41:47.090Z,52.23
2019-05-02T12:42:46.782Z,54.36
2019-05-02T12:43:46.776Z,55.07
2019-05-02T12:44:46.834Z,54.16
2019-05-02T12:45:46.749Z,53.93
2019-05-02T12:46:46.730Z,51.93
2019-05-02T12:47:46.733Z,53.65
2019-05-02T12:48:46.702Z,53.42
2019-05-02T12:49:46.693Z,52.11
2019-05-02T12:50:46.739Z,51.81
2019-05-02T12:51:46.672Z,51.42
2019-05-02T12:52:46.662Z,51.90